Time;durP1;ratioP1;P1;durP2;ratioP2;P2;SDS_P1;SDS_P2;PMS_P1;PMS_P2;Temp;Humidity;BMP_temperature;BMP_pressure;BME280_temperature;BME280_humidity;BME280_pressure;Samples;Min_cycle;Max_cycle;Signal;HPM_P1;HPM_P2
2022/05/19 00:01:30;;;;;;;6.03;3.88;;;21.30;99.90;;;;;;5031788;28;20029;-65
2022/05/19 00:03:56;;;;;;;7.18;3.80;;;21.40;99.90;;;;;;5031958;28;20033;-64
2022/05/19 00:06:22;;;;;;;6.15;3.95;;;21.30;99.90;;;;;;5031476;28;20143;-65
2022/05/19 00:08:47;;;;;;;6.50;4.18;;;21.30;99.90;;;;;;5031499;28;20398;-65
2022/05/19 00:11:17;;;;;;;6.05;3.83;;;21.30;99.90;;;;;;5031597;28;20025;-65
2022/05/19 00:13:43;;;;;;;5.57;3.80;;;21.30;99.90;;;;;;5031748;28;20036;-65
2022/05/19 00:16:10;;;;;;;6.60;3.50;;;21.30;99.90;;;;;;5031361;28;20022;-65
2022/05/19 00:18:37;;;;;;;4.15;3.13;;;21.30;99.90;;;;;;5031565;28;20026;-65
2022/05/19 00:21:04;;;;;;;5.93;3.55;;;21.30;99.90;;;;;;5031913;28;20033;-64
2022/05/19 00:23:30;;;;;;;4.47;3.58;;;21.40;99.90;;;;;;5031213;28;20053;-65
2022/05/19 00:25:56;;;;;;;5.00;3.50;;;21.40;99.90;;;;;;5070435;22;20390;-84
2022/05/19 00:28:21;;;;;;;5.47;3.40;;;21.30;99.90;;;;;;5066765;28;20037;-83
2022/05/19 00:30:47;;;;;;;4.20;3.30;;;21.30;99.90;;;;;;5050589;28;20067;-83
2022/05/19 00:33:13;;;;;;;5.43;3.42;;;21.30;99.90;;;;;;5051209;28;20022;-83
2022/05/19 00:35:39;;;;;;;5.13;3.00;;;21.30;99.90;;;;;;5051252;28;20409;-83
2022/05/19 00:38:06;;;;;;;5.85;2.95;;;21.30;99.90;;;;;;5049692;28;20029;-82
2022/05/19 00:40:32;;;;;;;4.00;3.15;;;21.30;99.90;;;;;;5050732;28;20073;-82
2022/05/19 00:42:58;;;;;;;4.28;2.70;;;21.30;99.90;;;;;;5050238;28;20052;-83
2022/05/19 00:45:26;;;;;;;4.07;3.00;;;21.30;99.90;;;;;;5050794;28;20025;-83
2022/05/19 00:47:56;;;;;;;;;;;21.30;99.90;;;;;;5051089;28;20032;-83
2022/05/19 00:50:53;;;;;;;4.20;2.78;;;21.30;99.90;;;;;;5050568;28;19956;-83
2022/05/19 00:53:40;;;;;;;4.25;2.65;;;21.30;99.90;;;;;;5049474;28;20029;-83
2022/05/19 00:56:12;;;;;;;4.68;2.88;;;21.20;99.90;;;;;;5050631;28;20025;-83
2022/05/19 00:58:52;;;;;;;3.83;2.83;;;21.20;99.90;;;;;;5050590;28;20033;-83
2022/05/19 01:01:18;;;;;;;5.28;3.10;;;21.20;99.90;;;;;;5050644;28;20083;-83
2022/05/19 01:03:58;;;;;;;4.97;2.53;;;21.20;99.90;;;;;;5050561;28;20543;-83
2022/05/19 01:06:25;;;;;;;4.25;2.97;;;21.20;99.90;;;;;;5050368;28;20052;-83
2022/05/19 01:09:04;;;;;;;5.13;3.10;;;21.20;99.90;;;;;;5050359;28;20036;-83
2022/05/19 01:11:31;;;;;;;3.42;2.60;;;21.20;99.90;;;;;;5049251;28;20449;-83
2022/05/19 01:13:58;;;;;;;4.20;2.50;;;21.20;99.90;;;;;;5049091;28;20029;-83
2022/05/19 01:16:24;;;;;;;4.93;2.70;;;21.20;99.90;;;;;;5050191;28;20030;-83
2022/05/19 01:18:50;;;;;;;4.82;3.13;;;21.20;99.90;;;;;;5048974;28;20508;-83
2022/05/19 01:21:19;;;;;;;4.05;2.80;;;21.30;99.90;;;;;;5050588;28;20083;-83
2022/05/19 01:24:21;;;;;;;5.10;2.85;;;21.30;99.90;;;;;;5050526;28;20021;-83
2022/05/19 01:26:50;;;;;;;3.58;2.47;;;21.30;99.90;;;;;;5042021;28;20103;-83
2022/05/19 01:29:19;;;;;;;3.65;2.58;;;21.30;99.90;;;;;;5032365;28;20059;-83
2022/05/19 01:31:51;;;;;;;4.25;2.28;;;21.30;99.90;;;;;;5050410;28;20029;-83
2022/05/19 01:34:21;;;;;;;3.38;2.17;;;21.30;99.90;;;;;;5049064;28;20040;-83
2022/05/19 01:36:47;;;;;;;4.85;2.75;;;21.30;99.50;;;;;;5050228;28;20029;-83
2022/05/19 01:39:20;;;;;;;2.80;2.17;;;21.30;99.80;;;;;;5048837;28;20032;-83
2022/05/19 01:42:12;;;;;;;3.65;2.20;;;21.30;99.30;;;;;;5050661;28;20487;-84
2022/05/19 01:44:41;;;;;;;4.00;2.45;;;21.40;99.20;;;;;;5050193;28;20120;-82
2022/05/19 01:47:12;;;;;;;3.65;2.50;;;21.40;99.20;;;;;;5050158;28;20049;-82
2022/05/19 01:50:04;;;;;;;3.40;2.55;;;21.40;99.00;;;;;;5049938;28;20029;-82
2022/05/19 01:52:40;;;;;;;3.70;2.45;;;21.40;98.80;;;;;;5043820;28;20037;-82
2022/05/19 01:55:11;;;;;;;4.00;2.30;;;21.40;98.80;;;;;;5052303;28;20037;-84
2022/05/19 01:57:50;;;;;;;3.75;2.47;;;21.40;98.80;;;;;;5054261;28;20075;-82
2022/05/19 02:00:23;;;;;;;5.57;2.50;;;21.40;98.60;;;;;;5052288;28;20040;-82
2022/05/19 02:03:01;;;;;;;4.53;2.70;;;21.40;98.60;;;;;;5052574;28;20036;-82
2022/05/19 02:05:27;;;;;;;;;;;21.40;98.50;;;;;;5054101;28;20025;-82
2022/05/19 02:07:56;;;;;;;5.13;2.83;;;21.40;98.30;;;;;;5053667;28;19916;-82
2022/05/19 02:10:29;;;;;;;4.75;2.60;;;21.40;98.30;;;;;;5053381;28;20032;-82
2022/05/19 02:12:57;;;;;;;3.33;2.10;;;21.40;98.30;;;;;;5053638;28;20515;-82
2022/05/19 02:15:26;;;;;;;6.43;2.80;;;21.40;98.30;;;;;;5053599;28;20029;-82
2022/05/19 02:17:54;;;;;;;4.15;2.67;;;21.40;98.30;;;;;;5052255;28;20669;-82
2022/05/19 02:20:24;;;;;;;4.40;2.20;;;21.40;98.30;;;;;;5053152;28;20033;-82
2022/05/19 02:22:51;;;;;;;3.83;2.65;;;21.40;98.30;;;;;;5052373;28;20449;-82
2022/05/19 02:25:39;;;;;;;4.32;2.58;;;21.30;98.20;;;;;;5051901;28;20489;-82
2022/05/19 02:28:07;;;;;;;4.13;2.55;;;21.30;98.20;;;;;;5052091;28;20029;-82
2022/05/19 02:30:37;;;;;;;4.60;2.42;;;21.30;98.20;;;;;;5053032;28;20043;-83
2022/05/19 02:33:04;;;;;;;3.80;2.20;;;21.30;98.20;;;;;;5051998;28;20504;-82
2022/05/19 02:35:30;;;;;;;4.82;2.72;;;21.30;98.20;;;;;;5053053;28;20029;-82
2022/05/19 02:37:57;;;;;;;3.92;2.47;;;21.30;98.30;;;;;;5053229;28;20044;-82
2022/05/19 02:40:25;;;;;;;3.83;2.40;;;21.20;98.30;;;;;;5052860;28;20499;-82
2022/05/19 02:42:51;;;;;;;5.82;2.33;;;21.20;98.30;;;;;;5053134;28;20025;-82
2022/05/19 02:45:19;;;;;;;3.63;2.05;;;21.20;98.30;;;;;;5053053;28;20450;-82
2022/05/19 02:47:46;;;;;;;4.35;2.60;;;21.20;98.40;;;;;;5053013;28;20033;-82
2022/05/19 02:50:14;;;;;;;4.15;2.60;;;21.10;98.40;;;;;;5052500;28;20024;-82
2022/05/19 02:52:39;;;;;;;4.82;2.65;;;21.10;98.50;;;;;;5053082;28;20029;-82
2022/05/19 02:55:06;;;;;;;5.57;3.03;;;21.10;98.50;;;;;;5052948;28;20116;-82
2022/05/19 02:57:32;;;;;;;5.60;2.70;;;21.10;98.60;;;;;;5052507;28;20056;-83
2022/05/19 02:59:59;;;;;;;3.60;2.38;;;21.00;98.60;;;;;;5052548;28;20037;-82
2022/05/19 03:02:25;;;;;;;4.35;2.50;;;21.00;98.70;;;;;;5052700;28;20029;-83
2022/05/19 03:04:50;;;;;;;6.03;2.60;;;21.00;98.70;;;;;;5052004;28;20127;-82
2022/05/19 03:07:16;;;;;;;3.47;2.10;;;21.00;98.80;;;;;;5052444;28;20047;-82
2022/05/19 03:09:42;;;;;;;4.85;2.58;;;21.00;98.80;;;;;;5052499;28;20025;-82
2022/05/19 03:12:10;;;;;;;4.25;2.45;;;21.00;98.80;;;;;;5051354;28;20499;-82
2022/05/19 03:14:35;;;;;;;5.22;2.42;;;20.90;98.90;;;;;;5052661;28;20053;-82
2022/05/19 03:17:04;;;;;;;4.53;2.60;;;20.90;98.90;;;;;;5052545;28;20020;-82
2022/05/19 03:19:29;;;;;;;4.45;2.33;;;20.80;98.90;;;;;;5052437;28;20059;-82
2022/05/19 03:21:55;;;;;;;5.60;2.83;;;20.80;98.90;;;;;;5052664;28;20568;-82
2022/05/19 03:24:21;;;;;;;5.65;3.10;;;20.80;99.00;;;;;;5052378;28;20033;-82
2022/05/19 03:26:47;;;;;;;8.93;4.53;;;20.80;99.00;;;;;;5052366;28;20048;-82
2022/05/19 03:29:12;;;;;;;6.65;3.83;;;20.70;99.10;;;;;;5050993;28;20025;-82
2022/05/19 03:31:38;;;;;;;6.13;2.83;;;20.70;99.20;;;;;;5052452;28;20496;-82
2022/05/19 03:34:04;;;;;;;5.68;2.95;;;20.70;99.20;;;;;;5050908;28;20127;-82
2022/05/19 03:36:30;;;;;;;6.47;2.92;;;20.70;99.30;;;;;;5052109;28;20032;-83
2022/05/19 03:38:56;;;;;;;5.00;2.70;;;20.70;99.30;;;;;;5050935;28;20024;-83
2022/05/19 03:41:22;;;;;;;4.97;2.53;;;20.70;99.30;;;;;;5052316;28;20508;-83
2022/05/19 03:43:48;;;;;;;6.60;2.90;;;20.60;99.30;;;;;;5052310;28;20037;-82
2022/05/19 03:46:14;;;;;;;4.38;2.50;;;20.60;99.30;;;;;;5050622;28;20035;-82
2022/05/19 03:48:40;;;;;;;6.00;2.58;;;20.60;99.30;;;;;;5052286;28;20487;-82
2022/05/19 03:51:11;;;;;;;5.35;2.60;;;20.60;99.40;;;;;;5052061;28;20116;-82
2022/05/19 03:53:38;;;;;;;4.70;2.50;;;20.60;99.40;;;;;;5052153;28;20043;-82
2022/05/19 03:56:04;;;;;;;5.32;2.63;;;20.60;99.40;;;;;;5051778;28;20548;-82
2022/05/19 03:58:30;;;;;;;5.35;2.70;;;20.70;99.30;;;;;;5050624;28;20028;-83
2022/05/19 04:00:56;;;;;;;5.18;2.80;;;20.60;99.30;;;;;;5051899;28;20029;-83
2022/05/19 04:03:22;;;;;;;3.88;2.40;;;20.70;99.20;;;;;;5051748;28;20041;-83
2022/05/19 04:05:48;;;;;;;3.30;2.42;;;20.70;99.20;;;;;;5051444;28;20028;-83
2022/05/19 04:08:14;;;;;;;5.70;2.58;;;20.60;99.20;;;;;;5052022;28;20407;-83
2022/05/19 04:10:44;;;;;;;3.92;2.70;;;20.70;99.20;;;;;;5051354;28;20052;-83
2022/05/19 04:13:11;;;;;;;6.25;2.70;;;20.70;99.20;;;;;;5050562;28;20033;-83
2022/05/19 04:15:37;;;;;;;3.40;2.20;;;20.70;99.10;;;;;;5051575;28;20067;-83
2022/05/19 04:18:03;;;;;;;4.20;2.50;;;20.70;99.00;;;;;;5050884;28;20040;-83
2022/05/19 04:20:30;;;;;;;4.25;2.88;;;20.70;99.00;;;;;;5050374;28;20485;-83
2022/05/19 04:23:00;;;;;;;3.97;2.33;;;20.80;98.70;;;;;;5051856;28;20442;-83
2022/05/19 04:25:28;;;;;;;4.43;2.42;;;20.90;98.30;;;;;;5051598;28;20037;-83
2022/05/19 04:27:53;;;;;;;7.53;3.60;;;20.90;98.30;;;;;;5051386;28;20040;-83
2022/05/19 04:30:19;;;;;;;9.15;3.80;;;20.90;98.20;;;;;;5051704;28;20041;-83
2022/05/19 04:32:48;;;;;;;5.05;2.88;;;21.00;98.20;;;;;;5050414;28;20025;-83
2022/05/19 04:35:15;;;;;;;6.05;3.40;;;21.10;98.20;;;;;;5051341;28;20032;-83
2022/05/19 04:37:41;;;;;;;12.55;3.72;;;21.10;98.20;;;;;;5050756;28;20377;-83
2022/05/19 04:40:08;;;;;;;8.93;3.50;;;21.10;98.30;;;;;;5051104;28;20037;-83
2022/05/19 04:42:35;;;;;;;6.10;2.90;;;21.10;98.10;;;;;;5050767;28;20051;-83
2022/05/19 04:45:00;;;;;;;6.43;2.70;;;21.10;98.20;;;;;;5049468;28;20126;-83
2022/05/19 04:47:26;;;;;;;6.13;2.45;;;21.10;98.40;;;;;;5049564;28;20079;-83
2022/05/19 04:49:52;;;;;;;4.15;2.50;;;21.10;98.50;;;;;;5050725;28;20029;-83
2022/05/19 04:52:20;;;;;;;5.00;2.70;;;21.20;98.60;;;;;;5049659;28;20397;-83
2022/05/19 04:54:46;;;;;;;4.80;2.20;;;21.20;98.50;;;;;;5049389;28;20489;-83
2022/05/19 04:57:12;;;;;;;4.07;2.22;;;21.20;98.60;;;;;;5050420;28;20346;-83
2022/05/19 04:59:39;;;;;;;3.72;2.30;;;21.30;98.60;;;;;;5050400;28;20104;-83
2022/05/19 05:02:05;;;;;;;5.22;2.85;;;21.30;98.60;;;;;;5032893;28;20439;-83
2022/05/19 05:04:31;;;;;;;5.85;3.05;;;21.30;98.60;;;;;;5049533;28;20025;-84
2022/05/19 05:06:57;;;;;;;4.97;2.60;;;21.40;98.40;;;;;;5050224;28;20037;-83
2022/05/19 05:09:24;;;;;;;6.95;2.97;;;21.40;98.10;;;;;;5050297;28;20040;-83
2022/05/19 05:11:49;;;;;;;6.22;2.30;;;21.40;97.90;;;;;;5049127;28;20480;-83
2022/05/19 05:14:16;;;;;;;4.32;2.78;;;21.50;97.60;;;;;;5032976;28;20029;-83
2022/05/19 05:16:47;;;;;;;5.50;2.78;;;21.50;97.20;;;;;;5050530;28;20061;-83
2022/05/19 05:19:18;;;;;;;6.68;2.90;;;21.60;97.30;;;;;;5032998;28;20033;-83
2022/05/19 05:21:45;;;;;;;5.30;2.90;;;21.60;97.10;;;;;;5049476;28;20434;-83
2022/05/19 05:24:11;;;;;;;6.75;3.08;;;21.60;97.10;;;;;;5049487;28;20384;-83
2022/05/19 05:26:37;;;;;;;4.38;2.47;;;21.60;97.00;;;;;;5048978;28;20040;-83
2022/05/19 05:29:03;;;;;;;6.43;3.50;;;21.70;96.90;;;;;;5052081;28;20033;-83
2022/05/19 05:31:28;;;;;;;5.60;2.83;;;21.60;97.00;;;;;;5054406;28;20037;-82
2022/05/19 05:33:55;;;;;;;9.30;3.88;;;21.70;96.90;;;;;;5054332;28;20474;-83
2022/05/19 05:36:20;;;;;;;8.38;4.07;;;21.60;97.10;;;;;;5054082;28;20052;-83
2022/05/19 05:38:46;;;;;;;7.80;3.22;;;21.70;97.30;;;;;;5054511;28;20029;-82
2022/05/19 05:41:13;;;;;;;8.57;3.22;;;21.70;97.30;;;;;;5052744;28;20072;-83
2022/05/19 05:43:40;;;;;;;7.47;3.28;;;21.60;97.40;;;;;;5052975;28;20392;-83
2022/05/19 05:46:11;;;;;;;4.88;2.85;;;21.60;97.70;;;;;;5052858;28;20029;-83
2022/05/19 05:48:38;;;;;;;7.43;3.83;;;21.60;97.70;;;;;;5053029;28;20106;-83
2022/05/19 05:51:08;;;;;;;12.43;3.53;;;21.60;97.90;;;;;;5054003;28;20036;-82
2022/05/19 05:53:35;;;;;;;7.60;3.65;;;21.60;97.80;;;;;;5054153;28;20033;-82
2022/05/19 05:56:03;;;;;;;6.35;3.30;;;21.70;97.80;;;;;;5052564;28;20071;-83
2022/05/19 05:58:30;;;;;;;8.70;4.22;;;21.60;97.80;;;;;;5035961;28;20029;-83
2022/05/19 06:01:00;;;;;;;8.60;4.00;;;21.60;98.00;;;;;;5052310;28;20482;-82
2022/05/19 06:03:26;;;;;;;8.50;3.75;;;21.70;98.00;;;;;;5053939;28;20068;-82
2022/05/19 06:05:52;;;;;;;8.38;3.80;;;21.70;98.10;;;;;;5052287;28;20052;-83
2022/05/19 06:08:18;;;;;;;7.10;3.92;;;21.70;98.10;;;;;;5035708;28;20604;-83
2022/05/19 06:10:45;;;;;;;10.68;4.35;;;21.70;98.10;;;;;;5052028;28;20417;-83
2022/05/19 06:13:11;;;;;;;8.20;3.85;;;21.80;98.10;;;;;;5052458;28;20418;-83
2022/05/19 06:15:37;;;;;;;7.00;3.40;;;21.80;98.10;;;;;;5053156;28;20044;-83
2022/05/19 06:18:03;;;;;;;7.35;3.92;;;21.80;98.00;;;;;;5053544;28;20029;-82
2022/05/19 06:20:29;;;;;;;10.63;4.10;;;21.90;97.90;;;;;;5051946;28;20039;-83
2022/05/19 06:22:56;;;;;;;16.83;4.75;;;21.90;97.90;;;;;;5052018;28;20037;-82
2022/05/19 06:25:23;;;;;;;8.73;4.03;;;21.90;97.60;;;;;;5083897;22;20053;-65
2022/05/19 06:27:49;;;;;;;5.97;3.60;;;22.00;97.70;;;;;;5053525;28;20081;-64
2022/05/19 06:30:16;;;;;;;6.35;3.42;;;22.00;97.80;;;;;;5053372;28;20036;-65
2022/05/19 06:32:43;;;;;;;7.80;3.75;;;22.00;97.70;;;;;;5053569;28;20025;-65
2022/05/19 06:35:12;;;;;;;6.50;3.90;;;22.00;97.80;;;;;;5053777;28;20025;-65
2022/05/19 06:37:38;;;;;;;7.78;3.75;;;22.10;97.70;;;;;;5053331;28;20025;-64
2022/05/19 06:40:06;;;;;;;8.75;3.60;;;22.20;97.70;;;;;;5052426;28;20087;-65
2022/05/19 06:42:32;;;;;;;6.32;3.90;;;22.20;97.60;;;;;;5053387;28;20104;-65
2022/05/19 06:45:00;;;;;;;7.25;4.00;;;22.30;97.50;;;;;;5053384;28;20025;-65
2022/05/19 06:47:28;;;;;;;7.57;3.30;;;22.30;97.30;;;;;;5053146;28;20029;-65
2022/05/19 06:49:56;;;;;;;7.28;3.38;;;22.30;97.20;;;;;;5053044;28;20025;-65
2022/05/19 06:52:25;;;;;;;6.00;3.22;;;22.40;97.20;;;;;;5053266;28;20037;-65
2022/05/19 06:54:53;;;;;;;6.75;2.92;;;22.40;97.10;;;;;;5053291;28;20032;-65
2022/05/19 06:57:21;;;;;;;7.88;3.25;;;22.40;96.80;;;;;;5052996;28;20413;-65
2022/05/19 06:59:49;;;;;;;6.50;3.00;;;22.40;96.50;;;;;;5051657;28;20334;-65
2022/05/19 07:02:16;;;;;;;5.10;2.80;;;22.40;96.50;;;;;;5051776;28;20509;-65
2022/05/19 07:04:44;;;;;;;5.37;2.97;;;22.50;96.60;;;;;;5053435;28;20044;-64
2022/05/19 07:07:11;;;;;;;4.57;2.50;;;22.40;96.80;;;;;;5053075;28;20043;-65
2022/05/19 07:09:38;;;;;;;4.55;2.85;;;22.40;97.10;;;;;;5052830;28;20064;-65
2022/05/19 07:12:06;;;;;;;6.70;2.63;;;22.50;97.20;;;;;;5052828;28;20048;-65
2022/05/19 07:14:33;;;;;;;6.78;2.90;;;22.50;97.30;;;;;;5052932;28;20029;-65
2022/05/19 07:17:00;;;;;;;4.45;2.40;;;22.50;96.90;;;;;;5052557;28;20031;-65
2022/05/19 07:22:19;;;;;;;4.03;2.70;;;22.60;96.60;;;;;;5052863;28;20469;-65
2022/05/19 07:24:45;;;;;;;3.53;2.50;;;22.60;96.60;;;;;;5052715;28;20302;-65
2022/05/19 07:27:12;;;;;;;6.95;2.67;;;22.70;96.60;;;;;;5052757;28;20583;-65
2022/05/19 07:29:40;;;;;;;4.95;2.90;;;22.70;96.70;;;;;;5052180;28;20025;-65
2022/05/19 07:32:08;;;;;;;10.47;4.97;;;22.70;97.00;;;;;;5052465;28;20021;-64
2022/05/19 07:34:37;;;;;;;5.95;4.03;;;22.70;97.00;;;;;;5052709;28;20267;-65
2022/05/19 07:37:04;;;;;;;4.70;3.38;;;22.70;97.00;;;;;;5052086;28;20037;-65
2022/05/19 07:39:30;;;;;;;6.43;3.85;;;22.70;97.10;;;;;;5052420;28;20041;-65
2022/05/19 07:41:57;;;;;;;7.22;4.00;;;22.70;96.90;;;;;;5050921;28;20029;-65
2022/05/19 07:44:26;;;;;;;7.07;3.80;;;22.70;97.00;;;;;;5052593;28;20533;-65
2022/05/19 07:46:53;;;;;;;5.95;3.65;;;22.80;97.30;;;;;;5052061;28;20032;-65
2022/05/19 07:49:19;;;;;;;6.00;3.58;;;22.80;97.30;;;;;;5052141;28;20017;-65
2022/05/19 07:51:45;;;;;;;4.30;3.22;;;22.90;97.20;;;;;;5050862;28;20037;-65
2022/05/19 07:54:16;;;;;;;4.78;3.05;;;22.90;97.40;;;;;;5051967;28;20029;-65
2022/05/19 07:56:44;;;;;;;4.55;2.67;;;22.90;97.30;;;;;;5051781;28;20025;-65
2022/05/19 07:59:11;;;;;;;4.47;2.80;;;23.00;97.00;;;;;;5051899;28;20029;-65
2022/05/19 08:01:40;;;;;;;6.53;3.10;;;23.00;96.90;;;;;;5052198;28;20033;-65
2022/05/19 08:04:08;;;;;;;4.45;2.78;;;23.00;96.80;;;;;;5051804;28;20036;-65
2022/05/19 08:06:34;;;;;;;6.18;3.20;;;23.00;96.90;;;;;;5051624;28;20382;-65
2022/05/19 08:10:20;;;;;;;4.72;2.95;;;23.00;96.90;;;;;;5051541;28;20029;-65
2022/05/19 08:11:47;;;;;;;5.35;3.53;;;23.00;96.90;;;;;;5051399;28;20041;-64
2022/05/19 08:17:01;;;;;;;4.10;2.72;;;23.00;96.90;;;;;;5051390;28;20036;-64
2022/05/19 08:19:27;;;;;;;7.20;3.17;;;23.00;97.00;;;;;;5051472;28;20405;-65
2022/05/19 08:21:53;;;;;;;4.60;2.88;;;23.00;97.10;;;;;;5051460;28;20536;-65
2022/05/19 08:24:19;;;;;;;4.45;2.60;;;23.00;97.10;;;;;;5051413;28;20116;-65
2022/05/19 08:26:45;;;;;;;3.53;2.53;;;23.00;97.10;;;;;;5051171;28;20032;-65
2022/05/19 08:29:12;;;;;;;5.13;2.85;;;23.00;97.10;;;;;;5051387;28;20017;-64
2022/05/19 08:31:39;;;;;;;4.93;2.60;;;23.00;97.30;;;;;;5051327;28;20086;-65
2022/05/19 08:34:05;;;;;;;3.97;2.58;;;23.00;97.40;;;;;;5051282;28;20043;-65
2022/05/19 08:36:31;;;;;;;4.22;2.53;;;23.00;97.20;;;;;;5051359;28;20031;-65
2022/05/19 08:38:58;;;;;;;4.68;2.72;;;23.00;97.20;;;;;;5051337;28;20104;-65
2022/05/19 08:41:33;;;;;;;4.60;2.75;;;23.00;97.10;;;;;;5051259;28;20035;-65
2022/05/19 08:44:19;;;;;;;6.78;3.50;;;23.00;97.40;;;;;;5051278;28;20362;-65
2022/05/19 08:46:49;;;;;;;5.32;2.90;;;23.10;97.00;;;;;;5051159;28;20405;-65
2022/05/19 08:49:39;;;;;;;5.05;2.92;;;23.10;96.90;;;;;;5049945;28;20396;-65
2022/05/19 08:52:05;;;;;;;4.97;3.20;;;23.10;96.50;;;;;;5051123;28;20068;-66
2022/05/19 08:54:33;;;;;;;4.63;3.13;;;23.20;96.50;;;;;;5050972;28;20052;-65
2022/05/19 08:57:12;;;;;;;5.10;2.93;;;23.20;96.60;;;;;;5050735;28;20064;-65
2022/05/19 08:59:55;;;;;;;6.53;3.10;;;23.20;96.80;;;;;;5049732;28;20033;-65
2022/05/19 09:02:31;;;;;;;5.07;2.55;;;23.20;96.70;;;;;;5051135;28;20032;-65
2022/05/19 09:05:31;;;;;;;4.35;3.20;;;23.30;96.60;;;;;;5049305;28;20544;-65
2022/05/19 09:08:24;;;;;;;7.25;2.90;;;23.30;96.40;;;;;;5050862;28;20508;-65
2022/05/19 09:11:02;;;;;;;6.65;2.97;;;23.40;96.30;;;;;;5049402;28;20151;-64
2022/05/19 09:14:00;;;;;;;5.60;2.70;;;23.50;95.90;;;;;;5051136;28;20021;-64
2022/05/19 09:16:29;;;;;;;6.07;3.00;;;23.50;95.90;;;;;;5050619;28;20033;-65
2022/05/19 09:19:13;;;;;;;5.05;3.15;;;23.60;96.00;;;;;;5050709;28;20032;-65
2022/05/19 09:21:41;;;;;;;5.57;3.15;;;23.60;96.00;;;;;;5050815;28;20272;-65
2022/05/19 09:24:11;;;;;;;7.28;3.13;;;23.60;95.90;;;;;;5050717;28;20028;-64
2022/05/19 09:26:58;;;;;;;5.88;2.75;;;23.70;96.00;;;;;;5050482;28;20033;-65
2022/05/19 09:29:33;;;;;;;6.00;3.13;;;23.70;95.90;;;;;;5050618;28;20075;-64
2022/05/19 09:32:27;;;;;;;7.15;3.42;;;23.80;95.10;;;;;;5050660;28;20091;-65
2022/05/19 09:35:05;;;;;;;6.22;3.10;;;23.80;95.00;;;;;;5050855;28;20052;-65
2022/05/19 09:37:43;;;;;;;7.57;3.33;;;23.90;95.10;;;;;;5050592;28;20048;-65
2022/05/19 09:40:12;;;;;;;7.38;3.55;;;23.90;95.00;;;;;;5050579;28;20040;-65
2022/05/19 09:42:53;;;;;;;4.43;3.30;;;24.00;94.90;;;;;;5050598;28;20029;-65
2022/05/19 09:45:24;;;;;;;6.68;3.00;;;24.00;94.50;;;;;;5050501;28;20179;-65
2022/05/19 09:47:57;;;;;;;6.25;3.00;;;24.10;94.20;;;;;;5050495;28;20108;-65
2022/05/19 09:50:27;;;;;;;5.43;3.85;;;24.20;94.20;;;;;;5050582;28;20040;-65
2022/05/19 09:53:12;;;;;;;8.60;3.00;;;24.20;94.20;;;;;;5050501;28;20152;-65
2022/05/19 09:55:41;;;;;;;6.93;3.40;;;24.30;93.90;;;;;;5050597;28;20024;-65
2022/05/19 09:58:13;;;;;;;5.25;3.13;;;24.30;94.10;;;;;;5050325;28;20112;-65
2022/05/19 10:00:50;;;;;;;7.55;3.38;;;24.30;94.20;;;;;;5050279;28;20481;-65
2022/05/19 10:03:22;;;;;;;6.55;3.10;;;24.30;94.50;;;;;;5050406;28;20029;-65
2022/05/19 10:05:53;;;;;;;12.77;3.83;;;24.30;94.80;;;;;;5049010;28;20336;-65
2022/05/19 10:08:47;;;;;;;8.18;3.22;;;24.30;94.60;;;;;;5050756;28;20116;-65
2022/05/19 10:11:13;;;;;;;6.47;3.00;;;24.40;94.10;;;;;;5047145;28;20102;-65
2022/05/19 10:13:47;;;;;;;5.95;3.20;;;24.40;93.90;;;;;;5050486;28;20021;-65
2022/05/19 10:16:35;;;;;;;6.40;3.58;;;24.50;94.20;;;;;;5052065;28;20501;-65
2022/05/19 10:19:58;;;;;;;8.77;3.63;;;24.50;94.10;;;;;;5052501;28;20025;-65
2022/05/19 10:22:42;;;;;;;4.88;2.90;;;24.60;94.10;;;;;;4991954;28;20053;-65
2022/05/19 10:25:27;;;;;;;6.45;3.13;;;24.70;93.90;;;;;;4991735;28;20049;-65
2022/05/19 10:31:07;;;;;;;4.38;2.83;;;24.80;93.80;;;;;;5053222;28;20425;-65
2022/05/19 10:34:07;;;;;;;7.68;3.53;;;24.90;93.70;;;;;;5053591;28;20048;-64
2022/05/19 10:37:12;;;;;;;5.35;2.90;;;25.00;93.00;;;;;;5053195;28;20497;-64
2022/05/19 10:39:59;;;;;;;4.60;3.00;;;25.10;93.10;;;;;;4991185;28;20081;-65
2022/05/19 10:42:41;;;;;;;6.07;3.30;;;25.10;93.00;;;;;;4991610;28;20038;-65
2022/05/19 10:45:42;;;;;;;7.63;3.30;;;25.30;92.20;;;;;;5036261;28;20033;-65
2022/05/19 10:48:49;;;;;;;6.10;3.28;;;25.30;92.00;;;;;;5039958;28;20067;-65
2022/05/19 10:51:34;;;;;;;5.13;3.30;;;25.40;91.60;;;;;;5053036;28;20029;-63
2022/05/19 10:54:29;;;;;;;6.22;4.03;;;25.40;91.50;;;;;;5053299;28;20759;-63
2022/05/19 10:57:01;;;;;;;6.35;3.70;;;25.40;91.40;;;;;;5051078;28;20393;-63
2022/05/19 10:59:50;;;;;;;6.93;3.72;;;25.50;91.50;;;;;;5052947;28;20099;-63
2022/05/19 11:02:35;;;;;;;6.32;3.65;;;25.60;90.90;;;;;;5053175;28;20037;-63
2022/05/19 11:05:39;;;;;;;7.57;3.42;;;25.70;90.80;;;;;;5052943;28;20035;-63
2022/05/19 11:08:48;;;;;;;8.30;4.10;;;25.80;90.50;;;;;;4990871;28;20096;-63
2022/05/19 11:11:18;;;;;;;6.28;3.67;;;25.80;90.30;;;;;;5052569;28;20059;-63
2022/05/19 11:13:59;;;;;;;5.05;3.45;;;25.80;90.60;;;;;;5052863;28;20033;-63
2022/05/19 11:16:54;;;;;;;4.95;3.05;;;25.80;90.80;;;;;;5052493;28;20036;-64
2022/05/19 11:19:32;;;;;;;7.93;3.33;;;25.80;90.50;;;;;;5044321;28;20037;-65
2022/05/19 11:22:05;;;;;;;4.90;2.75;;;25.80;90.70;;;;;;5052582;28;20409;-65
2022/05/19 11:26:23;;;;;;;7.13;3.40;;;25.90;90.80;;;;;;5052517;28;20037;-65
2022/05/19 11:27:32;;;;;;;9.60;3.95;;;25.90;90.80;;;;;;5051876;28;20040;-63
2022/05/19 11:30:07;;;;;;;6.25;3.40;;;25.90;90.80;;;;;;5052133;28;20375;-63
2022/05/19 11:32:36;;;;;;;5.28;3.45;;;25.90;90.70;;;;;;5052440;28;20029;-62
2022/05/19 11:35:12;;;;;;;6.50;3.30;;;26.00;90.50;;;;;;5052475;28;20033;-62
2022/05/19 11:38:03;;;;;;;4.80;3.20;;;26.00;90.30;;;;;;5052162;28;20031;-63
2022/05/19 11:40:37;;;;;;;7.68;3.45;;;26.00;90.50;;;;;;5052191;28;20035;-63
2022/05/19 11:43:23;;;;;;;6.72;2.90;;;26.10;90.40;;;;;;5052238;28;20035;-63
2022/05/19 11:45:58;;;;;;;4.88;3.00;;;26.10;90.20;;;;;;5052028;28;20029;-63
2022/05/19 11:55:13;;;;;;;7.82;3.67;;;26.60;89.00;;;;;;5052099;28;20021;-63
2022/05/19 11:57:59;;;;;;;7.82;3.65;;;26.70;88.70;;;;;;5052199;28;20029;-63
2022/05/19 12:00:32;;;;;;;5.35;3.42;;;26.70;88.40;;;;;;5051524;28;20032;-63
2022/05/19 12:03:04;;;;;;;4.93;2.92;;;26.80;87.90;;;;;;5051999;28;20115;-63
2022/05/19 12:05:32;;;;;;;5.13;3.78;;;26.90;87.80;;;;;;5052017;28;20033;-63
2022/05/19 12:08:05;;;;;;;;;;;27.00;87.50;;;;;;5051858;28;20029;-63
2022/05/19 12:10:42;;;;;;;9.50;4.93;;;27.00;87.50;;;;;;5051332;28;19913;-62
2022/05/19 12:13:11;;;;;;;7.63;3.80;;;27.10;87.80;;;;;;5051779;28;20043;-63
2022/05/19 12:15:51;;;;;;;6.65;3.30;;;27.10;87.70;;;;;;5051574;28;20358;-63
2022/05/19 12:18:23;;;;;;;10.27;4.30;;;27.20;86.90;;;;;;5050416;28;20045;-65
2022/05/19 12:21:01;;;;;;;5.75;3.65;;;27.20;85.80;;;;;;5051469;28;20395;-65
2022/05/19 12:23:49;;;;;;;6.70;3.15;;;27.20;85.10;;;;;;5051508;28;20047;-66
2022/05/19 12:26:28;;;;;;;8.68;3.40;;;27.20;83.70;;;;;;5064496;22;20179;-66
2022/05/19 12:29:07;;;;;;;5.05;3.28;;;27.20;83.20;;;;;;5051030;28;20025;-66
2022/05/19 12:34:52;;;;;;;8.52;3.67;;;27.20;83.40;;;;;;5051351;28;19920;-67
2022/05/19 12:37:42;;;;;;;7.30;3.70;;;27.30;83.30;;;;;;5050782;28;20215;-67
2022/05/19 12:40:14;;;;;;;6.53;3.88;;;27.40;83.30;;;;;;5050675;28;20028;-67
2022/05/19 12:42:41;;;;;;;7.93;3.90;;;27.50;83.00;;;;;;5051133;28;20432;-67
2022/05/19 12:45:27;;;;;;;5.97;3.70;;;27.50;82.40;;;;;;5051350;28;20063;-67
2022/05/19 12:47:58;;;;;;;5.20;3.53;;;27.40;81.80;;;;;;5050719;28;20029;-66
2022/05/19 12:50:42;;;;;;;5.57;3.22;;;27.30;82.80;;;;;;5049266;28;20029;-67
2022/05/19 12:53:29;;;;;;;8.13;3.78;;;27.10;82.10;;;;;;5050936;28;20377;-67
2022/05/19 12:55:57;;;;;;;6.55;3.05;;;27.00;82.20;;;;;;5050492;28;20217;-66
2022/05/19 12:58:37;;;;;;;;;;;26.80;82.70;;;;;;5051203;28;20024;-66
2022/05/19 13:01:16;;;;;;;33.92;3.72;;;26.70;83.10;;;;;;5049474;28;19908;-66
2022/05/19 13:03:44;;;;;;;62.58;6.13;;;26.60;81.60;;;;;;5050815;28;20067;-67
2022/05/19 13:06:13;;;;;;;62.40;5.10;;;26.00;82.50;;;;;;5050493;28;20123;-66
2022/05/19 13:08:42;;;;;;;57.60;4.13;;;25.50;84.30;;;;;;5050636;28;20078;-66
2022/05/19 13:11:14;;;;;;;32.97;2.83;;;24.50;88.30;;;;;;5050589;28;20033;-66
2022/05/19 13:13:46;;;;;;;26.23;1.98;;;23.80;90.50;;;;;;5050602;28;20471;-66
2022/05/19 13:16:41;;;;;;;17.00;1.90;;;23.20;91.80;;;;;;5050867;28;20632;-66
2022/05/19 13:19:23;;;;;;;14.73;1.70;;;22.90;93.10;;;;;;5050565;28;20025;-66
2022/05/19 13:22:06;;;;;;;12.77;2.15;;;22.40;95.40;;;;;;5032651;28;20031;-66
2022/05/19 13:24:38;;;;;;;9.57;2.78;;;22.20;97.30;;;;;;5050731;28;20112;-67
2022/05/19 13:30:23;;;;;;;12.52;2.28;;;21.50;99.90;;;;;;5016211;28;20077;-66
2022/05/19 13:32:49;;;;;;;14.38;2.90;;;21.30;99.90;;;;;;5050596;28;20030;-67
2022/05/19 13:35:20;;;;;;;10.60;2.30;;;21.10;99.90;;;;;;5050624;28;20021;-67